Yigo, Guam
Current Conditions -  °F | °C
As of 11:58 AM on Tuesday 21 Oct 2014 (Local Time) from PGUA Reporting Station
Scattered Clouds Scattered Clouds  
Wind Chill: 29°   Ceiling: Unl
Heat Index: 34°   Visibility: 10mi
Dew Point: 24°   Wind: 9mph
Humidity: 72%   Direction: 30°NNE
Pressure: 29.85"   Gusts: NA
Location:  13.53°N, 144.89°E
Report Text: PGUA 210158Z AUTO 03008KT 10SM SCT021 29/24 A2985 RMK AO2 DZB0109E0118 SLP098 P0000 T02920238 $
Loading
Personal Weather Stations






























Interactive Weather Map
Tropical Storm Tracking
New forecast layout! Learn more

10-Day Weather Forecast

Advertisements
Track Severe Weather on mobile